This is the latest recevied weather packets stored in our database for station/object F4AMY-13. If no packets are shown the sender has not sent any weather packets the latest 10 day(s).
| Time | Temp. | Humidity | Pressure | Rain* | Wind** | Luminosity | Snow |
|---|---|---|---|---|---|---|---|
| 1777883224 | 12.78° C | 91% | 1013.7 hPa | 0 mm | 15.2 m/s, ° | 34 W/m² | - |
| 1777882924 | 12.78° C | 91% | 1013.5 hPa | 0 mm | 14.31 m/s, ° | 32 W/m² | - |
| 1777882624 | 12.78° C | 91% | 1013.6 hPa | 0 mm | 9.39 m/s, ° | 21 W/m² | - |
| 1777882324 | 12.78° C | 91% | 1013.9 hPa | 45.72 mm | 12.52 m/s, ° | 28 W/m² | - |
| 1777882024 | 12.78° C | 91% | 1013.8 hPa | 45.72 mm | 14.75 m/s, ° | 33 W/m² | - |
| 1777881724 | 13.33° C | 90% | 1013.8 hPa | 45.72 mm | 10.73 m/s, ° | 24 W/m² | - |
| 1777881424 | 13.33° C | 90% | 1013.8 hPa | 45.72 mm | 10.73 m/s, ° | 24 W/m² | - |
| 1777881124 | 13.33° C | 91% | 1013.7 hPa | 0 mm | 8.49 m/s, ° | 19 W/m² | - |
| 1777880824 | 13.33° C | 91% | 1013.6 hPa | 0 mm | 15.2 m/s, ° | 34 W/m² | - |
| 1777880523 | 13.33° C | 91% | 1013.6 hPa | 0 mm | 21.01 m/s, ° | 47 W/m² | - |
| 1777880223 | 12.78° C | 91% | 1013.5 hPa | 0 mm | 16.99 m/s, ° | 38 W/m² | - |
| 1777879923 | 12.78° C | 91% | 1013.6 hPa | 0 mm | 21.46 m/s, ° | 48 W/m² | - |
| 1777879623 | 12.78° C | 91% | 1013.4 hPa | 0 mm | 20.56 m/s, ° | 46 W/m² | - |
| 1777879323 | 12.78° C | 91% | 1013.7 hPa | 0 mm | 19.22 m/s, ° | 43 W/m² | - |
| 1777879023 | 12.78° C | 91% | 1013.6 hPa | 0 mm | 21.01 m/s, ° | 47 W/m² | - |
| 1777878723 | 12.78° C | 91% | 1013.6 hPa | 0 mm | 26.82 m/s, ° | 60 W/m² | - |
| 1777878423 | 12.78° C | 91% | 1013.5 hPa | 0 mm | 21.01 m/s, ° | 47 W/m² | - |
| 1777878123 | 12.22° C | 92% | 1013.6 hPa | 0 mm | 34.42 m/s, ° | 77 W/m² | - |
| 1777877823 | 12.22° C | 92% | 1013.4 hPa | 0 mm | 24.14 m/s, ° | 54 W/m² | - |
| 1777877523 | 12.22° C | 92% | 1013.6 hPa | 0 mm | 23.69 m/s, ° | 53 W/m² | - |
| 1777877223 | 12.22° C | 92% | 1013.5 hPa | 0 mm | 27.27 m/s, ° | 61 W/m² | - |
| 1777876923 | 12.22° C | 92% | 1013.6 hPa | 0 mm | 14.75 m/s, ° | 33 W/m² | - |
| 1777876623 | 12.22° C | 92% | 1013.6 hPa | 45.72 mm | 15.2 m/s, ° | 34 W/m² | - |
| 1777876323 | 11.67° C | 92% | 1013.7 hPa | 45.72 mm | 14.31 m/s, ° | 32 W/m² | - |
| 1777876023 | 11.67° C | 92% | 1013.6 hPa | 45.72 mm | 12.96 m/s, ° | 29 W/m² | - |
* Rain latest hour (hover to see other rain measurements)
** Current wind speed in m/s (hover to see current wind gust speed)